American Princess — WDB6512 — position and weather

sailwx.info

Track history (hours):
 
Tides and Currents Weather Stations Pressure Air Temp Water Temp Dewpoint Dewpoint Depression Visibility Wind Speed Wind Dir Waves Ship Positions

American Princess

Owner: T.W.F.M. Ferry Inc., Neponsit, NY. More information available from US FCC via Universal Licensing System and Coast Guard Vessel Documentation Center.

Last reported at 2017-Oct-08 21:44 UTC. Time now 2017-Oct-17 04:17 UTC.
Position N 40°34' W 073°53'.
Warning: this ship's position is 8 days out of date.

MMSI: 366854860.

Date/timePositionNaut miles runAvg speedWind from/ knotsBaromVisibWave heightAir tempDewpointWater temp
2017-Oct-08 21:44N 40°34' W 073°53'0 0.0
2017-Oct-08 21:29N 40°34' W 073°53'0 0.0
2017-Oct-08 21:00N 40°34' W 073°53'0 0.0
2017-Oct-08 20:30N 40°34' W 073°53'1 1.9
2017-Oct-08 19:56N 40°34' W 073°54'3 7.7
2017-Oct-08 19:30N 40°31' W 073°55'1 2.7
2017-Oct-08 18:58N 40°29' W 073°55'4 2.6
2017-Oct-08 17:24N 40°29' W 074°00'2 4.6
2017-Oct-08 16:58N 40°30' W 073°58'4 6.9
2017-Oct-08 16:19N 40°34' W 073°55'2 5.1
2017-Oct-08 16:00N 40°34' W 073°53'0 0.0
2017-Oct-07 22:45N 40°34' W 073°53'3 9.7
2017-Oct-07 22:28N 40°33' W 073°56'3 3.8
2017-Oct-07 21:43N 40°30' W 073°56'0 0.9
2017-Oct-07 21:17N 40°31' W 073°56'3 8.8
2017-Oct-07 20:58N 40°34' W 073°56'2 4.9
2017-Oct-07 20:30N 40°34' W 073°53'0 0.0
2017-Oct-07 20:00N 40°34' W 073°53'2 4.6
2017-Oct-07 19:30N 40°34' W 073°56'4 7.6
2017-Oct-07 18:56N 40°30' W 073°54'2 1.9
2017-Oct-07 17:43N 40°30' W 073°57'1 1.9
2017-Oct-07 17:26N 40°30' W 073°58'1 1.6
2017-Oct-07 17:00N 40°31' W 073°58'3 5.0
2017-Oct-07 16:28N 40°33' W 073°57'3 6.4
2017-Oct-07 16:00N 40°34' W 073°53'  
2017-Oct-01 19:36N 40°34' W 073°53'1 7.9
2017-Oct-01 19:28N 40°34' W 073°54'5 2.4
2017-Oct-01 17:27N 40°30' W 073°56'1 2.1
2017-Oct-01 16:59N 40°30' W 073°56'3 5.7
2017-Oct-01 16:29N 40°33' W 073°57'3 5.8
2017-Oct-01 15:59N 40°34' W 073°53'0 0.0
2017-Oct-01 03:10N 40°34' W 073°53'1 0.0
2017-Sep-29 19:33N 40°34' W 073°54'113.3
2017-Sep-29 19:30N 40°34' W 073°54'4 2.0
2017-Sep-29 17:16N 40°30' W 073°55'0 0.3
2017-Sep-29 16:58N 40°30' W 073°55'4 6.7
2017-Sep-29 16:26N 40°33' W 073°57'3 6.6
2017-Sep-29 16:00N 40°34' W 073°53'0 0.0
2017-Sep-29 15:29N 40°34' W 073°53'  
Track history (hours):
 
Tides and Currents Weather Stations Pressure Air Temp Water Temp Dewpoint Dewpoint Depression Visibility Wind Speed Wind Dir Waves Ship Positions

American Princess

Owner: T.W.F.M. Ferry Inc., Neponsit, NY. More information available from US FCC via Universal Licensing System and Coast Guard Vessel Documentation Center.

Last reported at 2017-Oct-08 21:44 UTC. Time now 2017-Oct-17 04:17 UTC.
Position N 40°34' W 073°53'.
Warning: this ship's position is 8 days out of date.

MMSI: 366854860.

Date/timePositionNaut miles runAvg speedWind from/ knotsBaromVisibWave heightAir tempDewpointWater temp
2017-Oct-08 21:44N 40°34' W 073°53'0 0.0
2017-Oct-08 21:29N 40°34' W 073°53'0 0.0
2017-Oct-08 21:00N 40°34' W 073°53'0 0.0
2017-Oct-08 20:30N 40°34' W 073°53'1 1.9
2017-Oct-08 19:56N 40°34' W 073°54'3 7.7
2017-Oct-08 19:30N 40°31' W 073°55'1 2.7
2017-Oct-08 18:58N 40°29' W 073°55'4 2.6
2017-Oct-08 17:24N 40°29' W 074°00'2 4.6
2017-Oct-08 16:58N 40°30' W 073°58'4 6.9
2017-Oct-08 16:19N 40°34' W 073°55'2 5.1
2017-Oct-08 16:00N 40°34' W 073°53'0 0.0
2017-Oct-07 22:45N 40°34' W 073°53'3 9.7
2017-Oct-07 22:28N 40°33' W 073°56'3 3.8
2017-Oct-07 21:43N 40°30' W 073°56'0 0.9
2017-Oct-07 21:17N 40°31' W 073°56'3 8.8
2017-Oct-07 20:58N 40°34' W 073°56'2 4.9
2017-Oct-07 20:30N 40°34' W 073°53'0 0.0
2017-Oct-07 20:00N 40°34' W 073°53'2 4.6
2017-Oct-07 19:30N 40°34' W 073°56'4 7.6
2017-Oct-07 18:56N 40°30' W 073°54'2 1.9
2017-Oct-07 17:43N 40°30' W 073°57'1 1.9
2017-Oct-07 17:26N 40°30' W 073°58'1 1.6
2017-Oct-07 17:00N 40°31' W 073°58'3 5.0
2017-Oct-07 16:28N 40°33' W 073°57'3 6.4
2017-Oct-07 16:00N 40°34' W 073°53'  
2017-Oct-01 19:36N 40°34' W 073°53'1 7.9
2017-Oct-01 19:28N 40°34' W 073°54'5 2.4
2017-Oct-01 17:27N 40°30' W 073°56'1 2.1
2017-Oct-01 16:59N 40°30' W 073°56'3 5.7
2017-Oct-01 16:29N 40°33' W 073°57'3 5.8
2017-Oct-01 15:59N 40°34' W 073°53'0 0.0
2017-Oct-01 03:10N 40°34' W 073°53'1 0.0
2017-Sep-29 19:33N 40°34' W 073°54'113.3
2017-Sep-29 19:30N 40°34' W 073°54'4 2.0
2017-Sep-29 17:16N 40°30' W 073°55'0 0.3
2017-Sep-29 16:58N 40°30' W 073°55'4 6.7
2017-Sep-29 16:26N 40°33' W 073°57'3 6.6
2017-Sep-29 16:00N 40°34' W 073°53'0 0.0
2017-Sep-29 15:29N 40°34' W 073°53'  

Dump ship's entire track history